sensor_id;sensor_type;location;lat;lon;timestamp;temperature;humidity
35692;DHT22;26978;44.830;-0.674;2022-07-24T00:00:54;19.80;99.90
35692;DHT22;26978;44.830;-0.674;2022-07-24T00:03:20;19.70;99.90
35692;DHT22;26978;44.830;-0.674;2022-07-24T00:05:46;19.70;99.90
35692;DHT22;26978;44.830;-0.674;2022-07-24T00:08:11;19.60;99.90
35692;DHT22;26978;44.830;-0.674;2022-07-24T00:10:38;19.60;99.90
35692;DHT22;26978;44.830;-0.674;2022-07-24T00:13:03;19.70;99.90
35692;DHT22;26978;44.830;-0.674;2022-07-24T00:15:29;19.70;99.90
35692;DHT22;26978;44.830;-0.674;2022-07-24T00:17:56;19.60;99.90
35692;DHT22;26978;44.830;-0.674;2022-07-24T00:20:22;19.50;99.90
35692;DHT22;26978;44.830;-0.674;2022-07-24T00:22:48;19.60;99.90
35692;DHT22;26978;44.830;-0.674;2022-07-24T00:25:14;19.50;99.90
35692;DHT22;26978;44.830;-0.674;2022-07-24T00:27:40;19.50;99.90
35692;DHT22;26978;44.830;-0.674;2022-07-24T00:30:06;19.50;99.90
35692;DHT22;26978;44.830;-0.674;2022-07-24T00:32:32;19.40;99.90
35692;DHT22;26978;44.830;-0.674;2022-07-24T00:34:57;19.30;99.90
35692;DHT22;26978;44.830;-0.674;2022-07-24T00:37:23;19.40;99.90
35692;DHT22;26978;44.830;-0.674;2022-07-24T00:39:49;19.20;99.90
35692;DHT22;26978;44.830;-0.674;2022-07-24T00:42:14;19.20;99.90
35692;DHT22;26978;44.830;-0.674;2022-07-24T00:44:40;19.20;99.90
35692;DHT22;26978;44.830;-0.674;2022-07-24T00:47:06;19.20;99.90
35692;DHT22;26978;44.830;-0.674;2022-07-24T00:49:31;19.20;99.90
35692;DHT22;26978;44.830;-0.674;2022-07-24T00:51:57;19.20;99.90
35692;DHT22;26978;44.830;-0.674;2022-07-24T00:54:23;19.10;99.90
35692;DHT22;26978;44.830;-0.674;2022-07-24T00:56:51;19.10;99.90
35692;DHT22;26978;44.830;-0.674;2022-07-24T00:59:17;19.10;99.90
35692;DHT22;26978;44.830;-0.674;2022-07-24T01:01:45;19.20;99.90
35692;DHT22;26978;44.830;-0.674;2022-07-24T01:04:12;19.20;99.90
35692;DHT22;26978;44.830;-0.674;2022-07-24T01:06:41;19.20;99.90
35692;DHT22;26978;44.830;-0.674;2022-07-24T01:09:07;19.20;99.90
35692;DHT22;26978;44.830;-0.674;2022-07-24T01:11:33;19.10;99.90
35692;DHT22;26978;44.830;-0.674;2022-07-24T01:13:59;19.10;99.90
35692;DHT22;26978;44.830;-0.674;2022-07-24T01:16:25;19.10;99.90
35692;DHT22;26978;44.830;-0.674;2022-07-24T01:18:51;19.20;99.90
35692;DHT22;26978;44.830;-0.674;2022-07-24T01:21:17;19.20;99.90
35692;DHT22;26978;44.830;-0.674;2022-07-24T01:23:42;19.10;99.90
35692;DHT22;26978;44.830;-0.674;2022-07-24T01:26:08;19.10;99.90
35692;DHT22;26978;44.830;-0.674;2022-07-24T01:28:35;19.00;99.90
35692;DHT22;26978;44.830;-0.674;2022-07-24T01:31:01;18.90;99.90
35692;DHT22;26978;44.830;-0.674;2022-07-24T01:33:27;18.90;99.90
35692;DHT22;26978;44.830;-0.674;2022-07-24T01:35:53;18.80;99.90
35692;DHT22;26978;44.830;-0.674;2022-07-24T01:38:18;18.90;99.90
35692;DHT22;26978;44.830;-0.674;2022-07-24T01:40:44;18.80;99.90
35692;DHT22;26978;44.830;-0.674;2022-07-24T01:43:10;18.80;99.90
35692;DHT22;26978;44.830;-0.674;2022-07-24T01:45:36;18.90;99.90
35692;DHT22;26978;44.830;-0.674;2022-07-24T01:48:03;18.90;99.90
35692;DHT22;26978;44.830;-0.674;2022-07-24T01:50:28;18.90;99.90
35692;DHT22;26978;44.830;-0.674;2022-07-24T01:52:54;18.90;99.90
35692;DHT22;26978;44.830;-0.674;2022-07-24T01:55:21;18.90;99.90
35692;DHT22;26978;44.830;-0.674;2022-07-24T01:57:48;18.80;99.90
35692;DHT22;26978;44.830;-0.674;2022-07-24T02:00:15;18.80;99.90
35692;DHT22;26978;44.830;-0.674;2022-07-24T02:02:43;18.70;99.90
35692;DHT22;26978;44.830;-0.674;2022-07-24T02:05:10;18.60;99.90
35692;DHT22;26978;44.830;-0.674;2022-07-24T02:07:38;18.60;99.90
35692;DHT22;26978;44.830;-0.674;2022-07-24T02:10:05;18.50;99.90
35692;DHT22;26978;44.830;-0.674;2022-07-24T02:12:30;18.40;99.90
35692;DHT22;26978;44.830;-0.674;2022-07-24T02:14:56;18.30;99.90
35692;DHT22;26978;44.830;-0.674;2022-07-24T02:17:22;18.20;99.90
35692;DHT22;26978;44.830;-0.674;2022-07-24T02:19:48;18.10;99.90
35692;DHT22;26978;44.830;-0.674;2022-07-24T02:22:13;18.10;99.90
35692;DHT22;26978;44.830;-0.674;2022-07-24T02:24:39;18.10;99.90
35692;DHT22;26978;44.830;-0.674;2022-07-24T02:27:05;18.10;99.90
35692;DHT22;26978;44.830;-0.674;2022-07-24T02:29:30;18.00;99.90
35692;DHT22;26978;44.830;-0.674;2022-07-24T02:31:56;17.90;99.90
35692;DHT22;26978;44.830;-0.674;2022-07-24T02:34:22;17.80;99.90
35692;DHT22;26978;44.830;-0.674;2022-07-24T02:36:47;17.70;99.90
35692;DHT22;26978;44.830;-0.674;2022-07-24T02:39:13;17.70;99.90
35692;DHT22;26978;44.830;-0.674;2022-07-24T02:41:38;17.80;99.90
35692;DHT22;26978;44.830;-0.674;2022-07-24T02:44:04;17.70;99.90
35692;DHT22;26978;44.830;-0.674;2022-07-24T02:46:30;17.70;99.90
35692;DHT22;26978;44.830;-0.674;2022-07-24T02:48:55;17.70;99.90
35692;DHT22;26978;44.830;-0.674;2022-07-24T02:51:21;17.80;99.90
35692;DHT22;26978;44.830;-0.674;2022-07-24T02:53:47;17.70;99.90
35692;DHT22;26978;44.830;-0.674;2022-07-24T02:56:12;17.70;99.90
35692;DHT22;26978;44.830;-0.674;2022-07-24T02:58:38;17.60;99.90
35692;DHT22;26978;44.830;-0.674;2022-07-24T03:01:04;17.60;99.90
35692;DHT22;26978;44.830;-0.674;2022-07-24T03:03:29;17.50;99.90
35692;DHT22;26978;44.830;-0.674;2022-07-24T03:05:59;17.50;99.90
35692;DHT22;26978;44.830;-0.674;2022-07-24T03:08:25;17.40;99.90
35692;DHT22;26978;44.830;-0.674;2022-07-24T03:10:51;17.30;99.90
35692;DHT22;26978;44.830;-0.674;2022-07-24T03:13:16;17.30;99.90
35692;DHT22;26978;44.830;-0.674;2022-07-24T03:15:42;17.20;99.90
35692;DHT22;26978;44.830;-0.674;2022-07-24T03:18:08;17.20;99.90
35692;DHT22;26978;44.830;-0.674;2022-07-24T03:20:33;17.20;99.90
35692;DHT22;26978;44.830;-0.674;2022-07-24T03:22:59;17.20;99.90
35692;DHT22;26978;44.830;-0.674;2022-07-24T03:25:25;17.20;99.90
35692;DHT22;26978;44.830;-0.674;2022-07-24T03:27:51;17.30;99.90
35692;DHT22;26978;44.830;-0.674;2022-07-24T03:30:18;17.30;99.90
35692;DHT22;26978;44.830;-0.674;2022-07-24T03:32:44;17.20;99.90
35692;DHT22;26978;44.830;-0.674;2022-07-24T03:35:09;17.10;99.90
35692;DHT22;26978;44.830;-0.674;2022-07-24T03:37:35;17.20;99.90
35692;DHT22;26978;44.830;-0.674;2022-07-24T03:40:01;17.30;99.90
35692;DHT22;26978;44.830;-0.674;2022-07-24T03:42:27;17.30;99.90
35692;DHT22;26978;44.830;-0.674;2022-07-24T03:44:53;17.30;99.90
35692;DHT22;26978;44.830;-0.674;2022-07-24T03:47:18;17.30;99.90
35692;DHT22;26978;44.830;-0.674;2022-07-24T03:49:44;17.30;99.90
35692;DHT22;26978;44.830;-0.674;2022-07-24T03:52:10;17.50;99.90
35692;DHT22;26978;44.830;-0.674;2022-07-24T03:54:35;17.40;99.90
35692;DHT22;26978;44.830;-0.674;2022-07-24T03:57:01;17.40;99.90
35692;DHT22;26978;44.830;-0.674;2022-07-24T03:59:27;17.40;99.90
35692;DHT22;26978;44.830;-0.674;2022-07-24T04:01:52;17.40;99.90
35692;DHT22;26978;44.830;-0.674;2022-07-24T04:04:18;17.30;99.90
35692;DHT22;26978;44.830;-0.674;2022-07-24T04:06:44;17.30;99.90
35692;DHT22;26978;44.830;-0.674;2022-07-24T04:09:10;17.20;99.90
35692;DHT22;26978;44.830;-0.674;2022-07-24T04:11:35;17.10;99.90
35692;DHT22;26978;44.830;-0.674;2022-07-24T04:14:01;17.00;99.90
35692;DHT22;26978;44.830;-0.674;2022-07-24T04:16:27;17.00;99.90
35692;DHT22;26978;44.830;-0.674;2022-07-24T04:18:53;17.00;99.90
35692;DHT22;26978;44.830;-0.674;2022-07-24T04:21:18;16.90;99.90
35692;DHT22;26978;44.830;-0.674;2022-07-24T04:23:44;16.90;99.90
35692;DHT22;26978;44.830;-0.674;2022-07-24T04:26:10;17.00;99.90
35692;DHT22;26978;44.830;-0.674;2022-07-24T04:28:36;16.90;99.90
35692;DHT22;26978;44.830;-0.674;2022-07-24T04:31:02;16.90;99.90
35692;DHT22;26978;44.830;-0.674;2022-07-24T04:33:28;16.90;99.90
35692;DHT22;26978;44.830;-0.674;2022-07-24T04:35:53;16.90;99.90
35692;DHT22;26978;44.830;-0.674;2022-07-24T04:38:19;16.90;99.90
35692;DHT22;26978;44.830;-0.674;2022-07-24T04:40:45;16.90;99.90
35692;DHT22;26978;44.830;-0.674;2022-07-24T04:43:10;16.80;99.90
35692;DHT22;26978;44.830;-0.674;2022-07-24T04:45:36;16.70;99.90
35692;DHT22;26978;44.830;-0.674;2022-07-24T04:48:02;16.80;99.90
35692;DHT22;26978;44.830;-0.674;2022-07-24T04:50:28;16.70;99.90
35692;DHT22;26978;44.830;-0.674;2022-07-24T04:52:53;16.80;99.90
35692;DHT22;26978;44.830;-0.674;2022-07-24T04:55:19;16.70;99.90
35692;DHT22;26978;44.830;-0.674;2022-07-24T04:57:45;16.70;99.90
35692;DHT22;26978;44.830;-0.674;2022-07-24T05:00:12;16.90;99.90
35692;DHT22;26978;44.830;-0.674;2022-07-24T05:02:38;16.90;99.90
35692;DHT22;26978;44.830;-0.674;2022-07-24T05:05:05;17.00;99.90
35692;DHT22;26978;44.830;-0.674;2022-07-24T05:07:31;17.00;99.90
35692;DHT22;26978;44.830;-0.674;2022-07-24T05:09:57;17.00;99.90
35692;DHT22;26978;44.830;-0.674;2022-07-24T05:12:24;17.00;99.90
35692;DHT22;26978;44.830;-0.674;2022-07-24T05:14:50;17.00;99.90
35692;DHT22;26978;44.830;-0.674;2022-07-24T05:17:15;17.00;99.90
35692;DHT22;26978;44.830;-0.674;2022-07-24T05:19:41;17.10;99.90
35692;DHT22;26978;44.830;-0.674;2022-07-24T05:22:07;17.20;99.90
35692;DHT22;26978;44.830;-0.674;2022-07-24T05:24:32;17.20;99.90
35692;DHT22;26978;44.830;-0.674;2022-07-24T05:26:58;17.40;99.90
35692;DHT22;26978;44.830;-0.674;2022-07-24T05:29:24;17.50;99.90
35692;DHT22;26978;44.830;-0.674;2022-07-24T05:31:49;17.50;99.90
35692;DHT22;26978;44.830;-0.674;2022-07-24T05:34:17;17.60;99.90
35692;DHT22;26978;44.830;-0.674;2022-07-24T05:36:43;17.60;99.90
35692;DHT22;26978;44.830;-0.674;2022-07-24T05:39:08;17.80;99.90
35692;DHT22;26978;44.830;-0.674;2022-07-24T05:41:34;17.90;99.90
35692;DHT22;26978;44.830;-0.674;2022-07-24T05:44:00;17.90;99.90
35692;DHT22;26978;44.830;-0.674;2022-07-24T05:46:26;18.10;99.90
35692;DHT22;26978;44.830;-0.674;2022-07-24T05:48:51;18.20;99.90
35692;DHT22;26978;44.830;-0.674;2022-07-24T05:51:17;18.30;99.90
35692;DHT22;26978;44.830;-0.674;2022-07-24T05:53:42;18.60;99.90
35692;DHT22;26978;44.830;-0.674;2022-07-24T05:56:08;18.70;99.90
35692;DHT22;26978;44.830;-0.674;2022-07-24T05:58:34;18.90;99.90
35692;DHT22;26978;44.830;-0.674;2022-07-24T06:01:00;19.00;99.90
35692;DHT22;26978;44.830;-0.674;2022-07-24T06:03:26;19.10;99.90
35692;DHT22;26978;44.830;-0.674;2022-07-24T06:05:51;19.20;99.90
35692;DHT22;26978;44.830;-0.674;2022-07-24T06:08:17;19.40;99.90
35692;DHT22;26978;44.830;-0.674;2022-07-24T06:10:43;19.50;99.90
35692;DHT22;26978;44.830;-0.674;2022-07-24T06:13:08;19.70;99.90
35692;DHT22;26978;44.830;-0.674;2022-07-24T06:15:34;19.80;99.90
35692;DHT22;26978;44.830;-0.674;2022-07-24T06:17:59;20.00;99.90
35692;DHT22;26978;44.830;-0.674;2022-07-24T06:20:25;20.10;99.90
35692;DHT22;26978;44.830;-0.674;2022-07-24T06:22:51;20.20;99.90
35692;DHT22;26978;44.830;-0.674;2022-07-24T06:25:17;20.20;99.90
35692;DHT22;26978;44.830;-0.674;2022-07-24T06:27:48;20.40;99.90
35692;DHT22;26978;44.830;-0.674;2022-07-24T06:30:22;20.50;99.90
35692;DHT22;26978;44.830;-0.674;2022-07-24T06:32:49;20.70;99.90
35692;DHT22;26978;44.830;-0.674;2022-07-24T06:35:15;20.80;99.90
35692;DHT22;26978;44.830;-0.674;2022-07-24T06:37:41;20.90;99.90
35692;DHT22;26978;44.830;-0.674;2022-07-24T06:40:07;20.90;99.90
35692;DHT22;26978;44.830;-0.674;2022-07-24T06:42:33;21.10;99.90
35692;DHT22;26978;44.830;-0.674;2022-07-24T06:44:59;21.20;99.90
35692;DHT22;26978;44.830;-0.674;2022-07-24T06:47:25;21.20;99.90
35692;DHT22;26978;44.830;-0.674;2022-07-24T06:49:54;21.60;99.90
35692;DHT22;26978;44.830;-0.674;2022-07-24T06:52:20;21.70;99.40
35692;DHT22;26978;44.830;-0.674;2022-07-24T06:54:47;21.80;98.80
35692;DHT22;26978;44.830;-0.674;2022-07-24T06:57:13;21.80;98.90
35692;DHT22;26978;44.830;-0.674;2022-07-24T06:59:39;22.00;98.30
35692;DHT22;26978;44.830;-0.674;2022-07-24T07:02:05;22.20;97.70
35692;DHT22;26978;44.830;-0.674;2022-07-24T07:04:31;22.20;97.20
35692;DHT22;26978;44.830;-0.674;2022-07-24T07:06:56;22.40;96.60
35692;DHT22;26978;44.830;-0.674;2022-07-24T07:09:22;22.50;96.40
35692;DHT22;26978;44.830;-0.674;2022-07-24T07:11:48;22.70;95.50
35692;DHT22;26978;44.830;-0.674;2022-07-24T07:14:14;22.70;95.30
35692;DHT22;26978;44.830;-0.674;2022-07-24T07:16:39;23.00;94.20
35692;DHT22;26978;44.830;-0.674;2022-07-24T07:19:05;23.10;93.60
35692;DHT22;26978;44.830;-0.674;2022-07-24T07:21:30;23.20;93.40
35692;DHT22;26978;44.830;-0.674;2022-07-24T07:23:56;23.20;93.40
35692;DHT22;26978;44.830;-0.674;2022-07-24T07:26:22;23.30;93.30
35692;DHT22;26978;44.830;-0.674;2022-07-24T07:28:48;23.50;92.80
35692;DHT22;26978;44.830;-0.674;2022-07-24T07:31:14;23.50;92.50
35692;DHT22;26978;44.830;-0.674;2022-07-24T07:33:39;23.70;91.80
35692;DHT22;26978;44.830;-0.674;2022-07-24T07:36:05;23.80;91.50
35692;DHT22;26978;44.830;-0.674;2022-07-24T07:38:31;23.90;91.20
35692;DHT22;26978;44.830;-0.674;2022-07-24T07:40:57;24.00;91.30
35692;DHT22;26978;44.830;-0.674;2022-07-24T07:43:22;24.00;91.10
35692;DHT22;26978;44.830;-0.674;2022-07-24T07:45:48;24.10;90.50
35692;DHT22;26978;44.830;-0.674;2022-07-24T07:48:16;24.10;90.40
35692;DHT22;26978;44.830;-0.674;2022-07-24T07:50:42;24.20;90.70
35692;DHT22;26978;44.830;-0.674;2022-07-24T07:53:07;24.50;90.00
35692;DHT22;26978;44.830;-0.674;2022-07-24T07:55:33;24.60;89.40
35692;DHT22;26978;44.830;-0.674;2022-07-24T07:58:00;24.70;89.10
35692;DHT22;26978;44.830;-0.674;2022-07-24T08:00:26;24.70;89.20
35692;DHT22;26978;44.830;-0.674;2022-07-24T08:02:52;24.90;89.00
35692;DHT22;26978;44.830;-0.674;2022-07-24T08:05:18;24.90;88.50
35692;DHT22;26978;44.830;-0.674;2022-07-24T08:07:43;25.00;87.80
35692;DHT22;26978;44.830;-0.674;2022-07-24T08:10:09;25.10;88.20
35692;DHT22;26978;44.830;-0.674;2022-07-24T08:12:35;25.20;87.40
35692;DHT22;26978;44.830;-0.674;2022-07-24T08:15:01;25.50;86.30
35692;DHT22;26978;44.830;-0.674;2022-07-24T08:17:26;25.40;85.10
35692;DHT22;26978;44.830;-0.674;2022-07-24T08:19:52;25.30;85.90
35692;DHT22;26978;44.830;-0.674;2022-07-24T08:22:18;25.60;85.00
35692;DHT22;26978;44.830;-0.674;2022-07-24T08:24:43;25.80;85.30
35692;DHT22;26978;44.830;-0.674;2022-07-24T08:27:09;26.00;84.10
35692;DHT22;26978;44.830;-0.674;2022-07-24T08:29:34;26.10;83.90
35692;DHT22;26978;44.830;-0.674;2022-07-24T08:32:00;26.20;83.90
35692;DHT22;26978;44.830;-0.674;2022-07-24T08:34:26;26.30;81.00
35692;DHT22;26978;44.830;-0.674;2022-07-24T08:36:51;26.40;81.40
35692;DHT22;26978;44.830;-0.674;2022-07-24T08:39:17;26.50;80.70
35692;DHT22;26978;44.830;-0.674;2022-07-24T08:41:44;26.60;80.40
35692;DHT22;26978;44.830;-0.674;2022-07-24T08:44:09;26.60;80.60
35692;DHT22;26978;44.830;-0.674;2022-07-24T08:46:40;26.70;80.60
35692;DHT22;26978;44.830;-0.674;2022-07-24T08:49:15;26.90;79.00
35692;DHT22;26978;44.830;-0.674;2022-07-24T08:51:43;26.90;78.90
35692;DHT22;26978;44.830;-0.674;2022-07-24T08:54:09;26.90;78.70
35692;DHT22;26978;44.830;-0.674;2022-07-24T08:56:42;27.00;78.10
35692;DHT22;26978;44.830;-0.674;2022-07-24T08:59:19;27.20;76.80
35692;DHT22;26978;44.830;-0.674;2022-07-24T09:01:47;27.20;77.20
35692;DHT22;26978;44.830;-0.674;2022-07-24T09:04:33;27.00;77.40
35692;DHT22;26978;44.830;-0.674;2022-07-24T09:06:59;27.20;76.20
35692;DHT22;26978;44.830;-0.674;2022-07-24T09:09:25;27.50;75.80
35692;DHT22;26978;44.830;-0.674;2022-07-24T09:14:40;27.50;75.00
35692;DHT22;26978;44.830;-0.674;2022-07-24T09:17:15;27.60;74.20
35692;DHT22;26978;44.830;-0.674;2022-07-24T09:19:45;27.50;73.90
35692;DHT22;26978;44.830;-0.674;2022-07-24T09:22:23;27.40;73.20
35692;DHT22;26978;44.830;-0.674;2022-07-24T09:25:29;27.60;74.40
35692;DHT22;26978;44.830;-0.674;2022-07-24T09:27:57;27.80;73.10
35692;DHT22;26978;44.830;-0.674;2022-07-24T09:30:34;27.50;72.40
35692;DHT22;26978;44.830;-0.674;2022-07-24T09:33:04;27.80;71.70
35692;DHT22;26978;44.830;-0.674;2022-07-24T09:35:37;28.20;71.50
35692;DHT22;26978;44.830;-0.674;2022-07-24T09:38:05;28.10;70.40
35692;DHT22;26978;44.830;-0.674;2022-07-24T09:40:37;28.30;69.90
35692;DHT22;26978;44.830;-0.674;2022-07-24T09:46:03;28.50;66.50
35692;DHT22;26978;44.830;-0.674;2022-07-24T09:48:48;28.60;67.40
35692;DHT22;26978;44.830;-0.674;2022-07-24T09:51:17;28.50;65.70
35692;DHT22;26978;44.830;-0.674;2022-07-24T09:53:46;28.60;65.40
35692;DHT22;26978;44.830;-0.674;2022-07-24T09:56:15;28.90;64.00
35692;DHT22;26978;44.830;-0.674;2022-07-24T09:58:52;29.20;63.40
35692;DHT22;26978;44.830;-0.674;2022-07-24T10:01:21;28.70;64.10
35692;DHT22;26978;44.830;-0.674;2022-07-24T10:03:48;28.90;65.70
35692;DHT22;26978;44.830;-0.674;2022-07-24T10:06:16;29.50;64.00
35692;DHT22;26978;44.830;-0.674;2022-07-24T10:08:44;29.50;63.90
35692;DHT22;26978;44.830;-0.674;2022-07-24T10:11:11;29.30;64.90
35692;DHT22;26978;44.830;-0.674;2022-07-24T10:13:38;29.20;65.60
35692;DHT22;26978;44.830;-0.674;2022-07-24T10:18:54;29.30;65.50
35692;DHT22;26978;44.830;-0.674;2022-07-24T10:21:35;29.60;64.20
35692;DHT22;26978;44.830;-0.674;2022-07-24T10:26:40;29.70;64.30
35692;DHT22;26978;44.830;-0.674;2022-07-24T10:29:11;29.80;62.70
35692;DHT22;26978;44.830;-0.674;2022-07-24T10:31:39;29.60;64.30
35692;DHT22;26978;44.830;-0.674;2022-07-24T10:34:31;29.50;65.00
35692;DHT22;26978;44.830;-0.674;2022-07-24T10:37:01;29.50;66.80
35692;DHT22;26978;44.830;-0.674;2022-07-24T10:40:05;29.80;64.80
35692;DHT22;26978;44.830;-0.674;2022-07-24T10:42:31;30.00;63.50
35692;DHT22;26978;44.830;-0.674;2022-07-24T10:45:14;30.20;63.60
35692;DHT22;26978;44.830;-0.674;2022-07-24T10:47:40;30.20;61.70
35692;DHT22;26978;44.830;-0.674;2022-07-24T10:50:06;30.40;60.60
35692;DHT22;26978;44.830;-0.674;2022-07-24T10:52:33;31.00;57.70
35692;DHT22;26978;44.830;-0.674;2022-07-24T11:00:41;31.00;55.80
35692;DHT22;26978;44.830;-0.674;2022-07-24T11:03:25;31.20;55.80
35692;DHT22;26978;44.830;-0.674;2022-07-24T11:08:29;31.20;57.60
35692;DHT22;26978;44.830;-0.674;2022-07-24T11:11:05;31.30;56.60
35692;DHT22;26978;44.830;-0.674;2022-07-24T11:16:19;32.00;55.10
35692;DHT22;26978;44.830;-0.674;2022-07-24T11:21:37;32.10;52.80
35692;DHT22;26978;44.830;-0.674;2022-07-24T11:24:21;31.70;54.40
35692;DHT22;26978;44.830;-0.674;2022-07-24T11:26:55;32.00;53.50
35692;DHT22;26978;44.830;-0.674;2022-07-24T11:29:27;31.80;53.10
35692;DHT22;26978;44.830;-0.674;2022-07-24T11:32:03;31.90;54.30
35692;DHT22;26978;44.830;-0.674;2022-07-24T11:34:30;32.00;54.70
35692;DHT22;26978;44.830;-0.674;2022-07-24T11:36:57;32.00;54.40
35692;DHT22;26978;44.830;-0.674;2022-07-24T11:39:31;32.20;53.40
35692;DHT22;26978;44.830;-0.674;2022-07-24T11:42:00;32.40;53.90
35692;DHT22;26978;44.830;-0.674;2022-07-24T11:44:28;32.50;52.20
35692;DHT22;26978;44.830;-0.674;2022-07-24T11:46:56;32.40;52.40
35692;DHT22;26978;44.830;-0.674;2022-07-24T11:49:24;32.50;52.40
35692;DHT22;26978;44.830;-0.674;2022-07-24T11:51:52;32.90;53.00
35692;DHT22;26978;44.830;-0.674;2022-07-24T11:54:23;33.40;52.10
35692;DHT22;26978;44.830;-0.674;2022-07-24T11:56:50;33.30;51.50
35692;DHT22;26978;44.830;-0.674;2022-07-24T11:59:26;33.20;52.00
35692;DHT22;26978;44.830;-0.674;2022-07-24T12:02:02;33.30;50.60
35692;DHT22;26978;44.830;-0.674;2022-07-24T12:04:28;33.10;50.40
35692;DHT22;26978;44.830;-0.674;2022-07-24T12:06:54;33.20;50.40
35692;DHT22;26978;44.830;-0.674;2022-07-24T12:09:20;33.20;52.50
35692;DHT22;26978;44.830;-0.674;2022-07-24T12:11:46;33.80;50.90
35692;DHT22;26978;44.830;-0.674;2022-07-24T12:14:16;34.20;50.20
35692;DHT22;26978;44.830;-0.674;2022-07-24T12:16:43;34.70;49.90
35692;DHT22;26978;44.830;-0.674;2022-07-24T12:19:20;34.40;48.20
35692;DHT22;26978;44.830;-0.674;2022-07-24T12:21:47;34.60;48.00
35692;DHT22;26978;44.830;-0.674;2022-07-24T12:24:14;35.10;45.90
35692;DHT22;26978;44.830;-0.674;2022-07-24T12:26:57;35.50;46.30
35692;DHT22;26978;44.830;-0.674;2022-07-24T12:29:24;35.50;44.80
35692;DHT22;26978;44.830;-0.674;2022-07-24T12:32:12;35.60;45.20
35692;DHT22;26978;44.830;-0.674;2022-07-24T12:34:46;35.50;45.30
35692;DHT22;26978;44.830;-0.674;2022-07-24T12:37:19;35.70;45.40
35692;DHT22;26978;44.830;-0.674;2022-07-24T12:39:49;36.30;44.80
35692;DHT22;26978;44.830;-0.674;2022-07-24T12:42:16;36.70;43.10
35692;DHT22;26978;44.830;-0.674;2022-07-24T12:44:43;36.70;43.20
35692;DHT22;26978;44.830;-0.674;2022-07-24T12:47:13;36.70;43.30
35692;DHT22;26978;44.830;-0.674;2022-07-24T12:49:42;36.90;42.50
35692;DHT22;26978;44.830;-0.674;2022-07-24T12:52:23;37.00;41.10
35692;DHT22;26978;44.830;-0.674;2022-07-24T12:54:51;37.10;40.70
35692;DHT22;26978;44.830;-0.674;2022-07-24T12:57:20;37.40;40.20
35692;DHT22;26978;44.830;-0.674;2022-07-24T12:59:48;38.60;38.90
35692;DHT22;26978;44.830;-0.674;2022-07-24T13:02:18;37.90;38.70
35692;DHT22;26978;44.830;-0.674;2022-07-24T13:04:46;37.00;40.50
35692;DHT22;26978;44.830;-0.674;2022-07-24T13:07:13;38.30;40.00
35692;DHT22;26978;44.830;-0.674;2022-07-24T13:09:39;37.50;41.40
35692;DHT22;26978;44.830;-0.674;2022-07-24T13:12:07;38.80;39.20
35692;DHT22;26978;44.830;-0.674;2022-07-24T13:14:33;39.00;38.50
35692;DHT22;26978;44.830;-0.674;2022-07-24T13:17:11;39.80;38.40
35692;DHT22;26978;44.830;-0.674;2022-07-24T13:19:38;40.20;37.40
35692;DHT22;26978;44.830;-0.674;2022-07-24T13:22:04;40.60;37.40
35692;DHT22;26978;44.830;-0.674;2022-07-24T13:24:31;41.00;36.20
35692;DHT22;26978;44.830;-0.674;2022-07-24T13:26:58;41.10;36.70
35692;DHT22;26978;44.830;-0.674;2022-07-24T13:29:25;41.10;35.10
35692;DHT22;26978;44.830;-0.674;2022-07-24T13:31:51;40.90;35.60
35692;DHT22;26978;44.830;-0.674;2022-07-24T13:34:17;41.30;34.40
35692;DHT22;26978;44.830;-0.674;2022-07-24T13:36:43;40.80;34.90
35692;DHT22;26978;44.830;-0.674;2022-07-24T13:39:09;41.50;35.00
35692;DHT22;26978;44.830;-0.674;2022-07-24T13:41:36;41.10;34.70
35692;DHT22;26978;44.830;-0.674;2022-07-24T13:44:03;41.30;34.00
35692;DHT22;26978;44.830;-0.674;2022-07-24T13:46:30;41.40;33.80
35692;DHT22;26978;44.830;-0.674;2022-07-24T13:48:56;41.40;34.20
35692;DHT22;26978;44.830;-0.674;2022-07-24T13:51:22;42.40;33.70
35692;DHT22;26978;44.830;-0.674;2022-07-24T13:53:47;41.80;33.40
35692;DHT22;26978;44.830;-0.674;2022-07-24T13:56:13;42.30;33.30
35692;DHT22;26978;44.830;-0.674;2022-07-24T13:58:39;42.00;32.70
35692;DHT22;26978;44.830;-0.674;2022-07-24T14:01:07;42.10;33.70
35692;DHT22;26978;44.830;-0.674;2022-07-24T14:03:33;40.90;33.00
35692;DHT22;26978;44.830;-0.674;2022-07-24T14:06:00;41.90;33.40
35692;DHT22;26978;44.830;-0.674;2022-07-24T14:08:27;41.60;32.40
35692;DHT22;26978;44.830;-0.674;2022-07-24T14:10:53;40.30;34.50
35692;DHT22;26978;44.830;-0.674;2022-07-24T14:13:19;40.50;34.50
35692;DHT22;26978;44.830;-0.674;2022-07-24T14:15:44;41.20;33.10
35692;DHT22;26978;44.830;-0.674;2022-07-24T14:18:10;41.70;33.10
35692;DHT22;26978;44.830;-0.674;2022-07-24T14:20:36;42.30;32.90
35692;DHT22;26978;44.830;-0.674;2022-07-24T14:23:02;43.30;32.60
35692;DHT22;26978;44.830;-0.674;2022-07-24T14:25:27;43.70;31.20
35692;DHT22;26978;44.830;-0.674;2022-07-24T14:27:53;43.60;31.20
35692;DHT22;26978;44.830;-0.674;2022-07-24T14:30:19;44.00;31.10
35692;DHT22;26978;44.830;-0.674;2022-07-24T14:32:44;44.50;30.50
35692;DHT22;26978;44.830;-0.674;2022-07-24T14:35:10;44.80;30.50
35692;DHT22;26978;44.830;-0.674;2022-07-24T14:37:37;43.80;29.90
35692;DHT22;26978;44.830;-0.674;2022-07-24T14:40:05;43.60;30.30
35692;DHT22;26978;44.830;-0.674;2022-07-24T14:42:31;43.60;30.90
35692;DHT22;26978;44.830;-0.674;2022-07-24T14:44:57;43.00;30.60
35692;DHT22;26978;44.830;-0.674;2022-07-24T14:47:23;43.40;30.70
35692;DHT22;26978;44.830;-0.674;2022-07-24T14:49:48;44.10;30.40
35692;DHT22;26978;44.830;-0.674;2022-07-24T14:52:14;44.30;30.80
35692;DHT22;26978;44.830;-0.674;2022-07-24T14:54:41;44.80;29.40
35692;DHT22;26978;44.830;-0.674;2022-07-24T14:57:06;45.00;29.10
35692;DHT22;26978;44.830;-0.674;2022-07-24T14:59:34;44.70;29.50
35692;DHT22;26978;44.830;-0.674;2022-07-24T15:01:59;44.90;29.70
35692;DHT22;26978;44.830;-0.674;2022-07-24T15:04:25;45.00;30.00
35692;DHT22;26978;44.830;-0.674;2022-07-24T15:06:51;44.80;29.20
35692;DHT22;26978;44.830;-0.674;2022-07-24T15:09:16;45.30;29.40
35692;DHT22;26978;44.830;-0.674;2022-07-24T15:11:42;45.60;29.00
35692;DHT22;26978;44.830;-0.674;2022-07-24T15:14:08;44.90;29.00
35692;DHT22;26978;44.830;-0.674;2022-07-24T15:16:33;43.40;29.80
35692;DHT22;26978;44.830;-0.674;2022-07-24T15:18:59;43.10;29.60
35692;DHT22;26978;44.830;-0.674;2022-07-24T15:21:24;44.30;29.30
35692;DHT22;26978;44.830;-0.674;2022-07-24T15:23:50;44.00;29.30
35692;DHT22;26978;44.830;-0.674;2022-07-24T15:26:16;43.30;29.40
35692;DHT22;26978;44.830;-0.674;2022-07-24T15:28:41;43.50;29.30
35692;DHT22;26978;44.830;-0.674;2022-07-24T15:31:07;43.20;29.10
35692;DHT22;26978;44.830;-0.674;2022-07-24T15:33:33;44.30;29.60
35692;DHT22;26978;44.830;-0.674;2022-07-24T15:35:58;45.30;29.30
35692;DHT22;26978;44.830;-0.674;2022-07-24T15:38:24;45.30;28.70
35692;DHT22;26978;44.830;-0.674;2022-07-24T15:40:50;46.30;28.40